Time;durP1;ratioP1;P1;durP2;ratioP2;P2;SDS_P1;SDS_P2;PMS_P1;PMS_P2;Temp;Humidity;BMP_temperature;BMP_pressure;BME280_temperature;BME280_humidity;BME280_pressure;Samples;Min_cycle;Max_cycle;Signal;HPM_P1;HPM_P2
2023/04/25 00:01:02;;;;;;;;;;;;;;;3.46;100.00;100687.66;4923989;29;19918;-75
2023/04/25 00:03:29;;;;;;;;;;;;;;;3.50;100.00;100696.16;4928287;29;19930;-75
2023/04/25 00:05:56;;;;;;;;;;;;;;;3.53;100.00;100696.81;4917673;29;20018;-75
2023/04/25 00:08:22;;;;;;;;;;;;;;;3.60;100.00;100698.13;4922103;29;19978;-75
2023/04/25 00:10:48;;;;;;;;;;;;;;;3.67;100.00;100698.59;4927267;29;19923;-75
2023/04/25 00:13:14;;;;;;;;;;;;;;;3.69;100.00;100698.50;4945355;29;19923;-75
2023/04/25 00:15:41;;;;;;;;;;;;;;;3.70;100.00;100702.78;4917086;29;20440;-75
2023/04/25 00:18:07;;;;;;;;;;;;;;;3.69;100.00;100694.13;4953787;28;19918;-75
2023/04/25 00:20:32;;;;;;;;;;;;;;;3.71;100.00;100697.47;4922484;29;19982;-75
2023/04/25 00:22:58;;;;;;;;;;;;;;;3.71;100.00;100697.47;4919472;29;19930;-75
2023/04/25 00:25:24;;;;;;;;;;;;;;;3.66;100.00;100693.47;4921805;29;19919;-76
2023/04/25 00:27:50;;;;;;;;;;;;;;;3.68;100.00;100686.38;4930109;29;19923;-75
2023/04/25 00:30:16;;;;;;;;;;;;;;;3.72;100.00;100698.31;4931947;29;19925;-75
2023/04/25 00:32:41;;;;;;;;;;;;;;;3.72;100.00;100695.72;4931734;29;19922;-73
2023/04/25 00:35:07;;;;;;;;;;;;;;;3.73;100.00;100702.59;4912661;29;19918;-73
2023/04/25 00:37:33;;;;;;;;;;;;;;;3.70;100.00;100706.25;4936222;29;19919;-75
2023/04/25 00:39:58;;;;;;;;;;;;;;;3.67;100.00;100706.44;4926295;29;19930;-75
2023/04/25 00:42:25;;;;;;;;;;;;;;;3.63;100.00;100711.94;4930151;29;20497;-76
2023/04/25 00:44:51;;;;;;;;;;;;;;;3.53;100.00;100711.66;4925083;29;19923;-75
2023/04/25 00:47:17;;;;;;;;;;;;;;;3.46;100.00;100713.78;4911099;29;19919;-75
2023/04/25 00:49:42;;;;;;;;;;;;;;;3.40;100.00;100715.00;4936761;29;19976;-75
2023/04/25 00:52:08;;;;;;;;;;;;;;;3.36;100.00;100710.88;4882025;29;19920;-75
2023/04/25 00:54:34;;;;;;;;;;;;;;;3.31;100.00;100710.31;4932990;29;19918;-76
2023/04/25 00:57:00;;;;;;;;;;;;;;;3.27;100.00;100714.88;4912160;29;19930;-75
2023/04/25 00:59:27;;;;;;;;;;;;;;;3.22;100.00;100711.69;4920590;29;19919;-75
2023/04/25 01:01:53;;;;;;;;;;;;;;;3.19;100.00;100711.88;4952480;28;19923;-75
2023/04/25 01:04:20;;;;;;;;;;;;;;;3.19;100.00;100710.09;4917721;29;20597;-76
2023/04/25 01:06:45;;;;;;;;;;;;;;;3.17;100.00;100706.75;4945853;28;19922;-76
2023/04/25 01:09:12;;;;;;;;;;;;;;;3.10;100.00;100708.03;4937800;29;19926;-76
2023/04/25 01:11:39;;;;;;;;;;;;;;;3.05;100.00;100710.06;4931422;29;19925;-76
2023/04/25 01:14:06;;;;;;;;;;;;;;;2.98;100.00;100705.19;4925813;29;19923;-76
2023/04/25 01:16:32;;;;;;;;;;;;;;;2.94;100.00;100706.31;4930884;29;19926;-76
2023/04/25 01:18:59;;;;;;;;;;;;;;;2.90;100.00;100699.56;4914888;29;19967;-76
2023/04/25 01:21:27;;;;;;;;;;;;;;;2.87;100.00;100699.75;4918956;29;19978;-76
2023/04/25 01:23:53;;;;;;;;;;;;;;;2.78;100.00;100695.91;4902128;29;19927;-76
2023/04/25 01:26:21;;;;;;;;;;;;;;;2.69;100.00;100692.03;4931744;28;19919;-75
2023/04/25 01:28:47;;;;;;;;;;;;;;;2.66;100.00;100688.78;4932595;29;19923;-76
2023/04/25 01:31:13;;;;;;;;;;;;;;;2.65;100.00;100695.75;4936798;29;19942;-76
2023/04/25 01:33:39;;;;;;;;;;;;;;;2.66;100.00;100688.78;4939568;29;20364;-76
2023/04/25 01:36:05;;;;;;;;;;;;;;;2.71;100.00;100691.94;4931302;29;19962;-76
2023/04/25 01:38:31;;;;;;;;;;;;;;;2.75;100.00;100685.63;4915513;29;19965;-76
2023/04/25 01:40:57;;;;;;;;;;;;;;;2.79;100.00;100692.34;4940099;28;19918;-76
2023/04/25 01:43:22;;;;;;;;;;;;;;;2.79;100.00;100694.13;4916846;29;19988;-76
2023/04/25 01:45:49;;;;;;;;;;;;;;;2.84;100.00;100697.31;4918077;29;20005;-76
2023/04/25 01:48:15;;;;;;;;;;;;;;;2.90;100.00;100698.75;4915086;29;20332;-76
2023/04/25 01:50:44;;;;;;;;;;;;;;;2.96;100.00;100701.00;4943810;29;20056;-76
2023/04/25 01:53:12;;;;;;;;;;;;;;;3.01;100.00;100703.34;4946375;29;19926;-76
2023/04/25 01:55:38;;;;;;;;;;;;;;;3.08;100.00;100702.91;4933565;29;20392;-76
2023/04/25 01:58:09;;;;;;;;;;;;;;;3.10;100.00;100706.28;4927573;29;19918;-76
2023/04/25 02:00:54;;;;;;;;;;;;;;;3.08;100.00;100702.91;4919686;29;19925;-76
2023/04/25 02:03:20;;;;;;;;;;;;;;;3.02;100.00;100711.09;4938673;29;20391;-76
2023/04/25 02:05:45;;;;;;;;;;;;;;;2.99;100.00;100706.06;4926736;29;19926;-75
2023/04/25 02:08:12;;;;;;;;;;;;;;;2.95;100.00;100699.31;4914167;29;19919;-76
2023/04/25 02:10:38;;;;;;;;;;;;;;;2.94;100.00;100703.72;4916074;29;19925;-75
2023/04/25 02:13:19;;;;;;;;;;;;;;;2.96;100.00;100704.44;4914267;29;19958;-76
2023/04/25 02:16:17;;;;;;;;;;;;;;;3.00;100.00;100709.47;4899069;29;19950;-76
2023/04/25 02:18:44;;;;;;;;;;;;;;;3.02;100.00;100708.47;4925424;29;19919;-76
2023/04/25 02:21:11;;;;;;;;;;;;;;;3.01;100.00;100708.56;4913526;29;19923;-75
2023/04/25 02:23:37;;;;;;;;;;;;;;;2.97;100.00;100707.91;4952038;28;20023;-75
2023/04/25 02:26:02;;;;;;;;;;;;;;;2.84;100.00;100707.75;4912098;29;20018;-76
2023/04/25 02:28:29;;;;;;;;;;;;;;;2.77;100.00;100704.66;4913241;29;20554;-75
2023/04/25 02:30:54;;;;;;;;;;;;;;;2.68;100.00;100692.97;4913138;29;19923;-76
2023/04/25 02:33:20;;;;;;;;;;;;;;;2.61;100.00;100696.88;4913500;29;19951;-76
2023/04/25 02:35:46;;;;;;;;;;;;;;;2.51;100.00;100696.53;4913925;29;19919;-75
2023/04/25 02:38:12;;;;;;;;;;;;;;;2.30;100.00;100688.97;4931918;29;19985;-75
2023/04/25 02:40:40;;;;;;;;;;;;;;;2.15;100.00;100692.41;4930896;29;19919;-75
2023/04/25 02:43:06;;;;;;;;;;;;;;;2.07;100.00;100692.84;4916978;29;19941;-76
2023/04/25 02:45:32;;;;;;;;;;;;;;;2.02;100.00;100687.88;4930646;29;19922;-76
2023/04/25 02:47:58;;;;;;;;;;;;;;;2.02;100.00;100689.63;4926235;29;19942;-75
2023/04/25 02:50:23;;;;;;;;;;;;;;;2.05;100.00;100685.09;4932894;29;20293;-76
2023/04/25 02:52:49;;;;;;;;;;;;;;;2.09;100.00;100685.75;4935231;29;20414;-76
2023/04/25 02:55:19;;;;;;;;;;;;;;;2.14;100.00;100678.53;4918932;29;19922;-76
2023/04/25 02:57:46;;;;;;;;;;;;;;;2.23;100.00;100691.06;4933731;29;19975;-76
2023/04/25 03:00:18;;;;;;;;;;;;;;;2.31;100.00;100680.19;4916020;29;20389;-76
2023/04/25 03:02:44;;;;;;;;;;;;;;;2.29;100.00;100684.69;4917541;29;20006;-75
2023/04/25 03:05:10;;;;;;;;;;;;;;;2.28;100.00;100689.97;4880283;29;19933;-76
2023/04/25 03:07:39;;;;;;;;;;;;;;;2.20;100.00;100682.56;4908337;29;20368;-76
2023/04/25 03:10:05;;;;;;;;;;;;;;;2.08;100.00;100681.47;4914788;29;20004;-75
2023/04/25 03:12:32;;;;;;;;;;;;;;;2.05;100.00;100685.09;4929770;29;19923;-76
2023/04/25 03:14:58;;;;;;;;;;;;;;;2.09;100.00;100697.03;4915270;29;20371;-75
2023/04/25 03:17:23;;;;;;;;;;;;;;;1.96;100.00;100690.78;4906890;29;19919;-76
2023/04/25 03:19:49;;;;;;;;;;;;;;;1.84;100.00;100681.88;4930051;29;20351;-76
2023/04/25 03:22:15;;;;;;;;;;;;;;;1.89;100.00;100676.41;4928603;29;19923;-76
2023/04/25 03:24:41;;;;;;;;;;;;;;;1.91;100.00;100682.38;4909539;29;19930;-76
2023/04/25 03:27:06;;;;;;;;;;;;;;;1.90;100.00;100684.13;4922706;29;19919;-75
2023/04/25 03:29:32;;;;;;;;;;;;;;;1.92;100.00;100673.63;4902877;29;19926;-76
2023/04/25 03:32:01;;;;;;;;;;;;;;;1.92;100.00;100679.69;4923464;29;19978;-76
2023/04/25 03:34:27;;;;;;;;;;;;;;;1.93;100.00;100683.13;4902734;29;19919;-76
2023/04/25 03:36:53;;;;;;;;;;;;;;;1.98;100.00;100683.72;4909398;29;19926;-76
2023/04/25 03:39:19;;;;;;;;;;;;;;;2.02;100.00;100682.66;4917446;29;20010;-76
2023/04/25 03:41:48;;;;;;;;;;;;;;;2.10;100.00;100679.63;4927701;29;19931;-76
2023/04/25 03:44:16;;;;;;;;;;;;;;;2.13;100.00;100689.03;4912777;29;20362;-76
2023/04/25 03:46:42;;;;;;;;;;;;;;;2.10;100.00;100677.84;4925173;29;20006;-76
2023/04/25 03:49:08;;;;;;;;;;;;;;;2.09;100.00;100677.94;4926977;29;20023;-76
2023/04/25 03:51:52;;;;;;;;;;;;;;;2.10;100.00;100682.25;4918743;29;19974;-76
2023/04/25 03:54:17;;;;;;;;;;;;;;;2.14;100.00;100683.75;4928868;29;19954;-76
2023/04/25 03:57:06;;;;;;;;;;;;;;;2.22;100.00;100689.38;4912576;29;20341;-76
2023/04/25 03:59:36;;;;;;;;;;;;;;;2.22;100.00;100692.00;4924432;29;19931;-76
2023/04/25 04:02:02;;;;;;;;;;;;;;;2.29;100.00;100696.88;4912644;29;20002;-75
2023/04/25 04:04:28;;;;;;;;;;;;;;;2.26;100.00;100690.06;4922808;29;19923;-76
2023/04/25 04:06:54;;;;;;;;;;;;;;;2.21;100.00;100695.50;4917933;29;20006;-75
2023/04/25 04:09:29;;;;;;;;;;;;;;;2.14;100.00;100688.09;4921877;29;19925;-76
2023/04/25 04:11:57;;;;;;;;;;;;;;;2.09;100.00;100685.75;4898946;29;19923;-76
2023/04/25 04:14:22;;;;;;;;;;;;;;;2.04;100.00;100687.78;4932593;29;19918;-76
2023/04/25 04:16:51;;;;;;;;;;;;;;;2.01;100.00;100680.94;4908223;29;19959;-76
2023/04/25 04:19:16;;;;;;;;;;;;;;;1.98;100.00;100683.72;4934160;29;19926;-76
2023/04/25 04:21:49;;;;;;;;;;;;;;;1.94;100.00;100692.66;4925340;29;20372;-76
2023/04/25 04:24:16;;;;;;;;;;;;;;;1.92;100.00;100690.13;4929144;29;19933;-76
2023/04/25 04:26:51;;;;;;;;;;;;;;;1.94;100.00;100693.47;4915610;29;19918;-76
2023/04/25 04:29:40;;;;;;;;;;;;;;;1.99;100.00;100690.66;4901345;29;20447;-75
2023/04/25 04:32:23;;;;;;;;;;;;;;;2.01;100.00;100699.19;4914926;29;19972;-76
2023/04/25 04:34:49;;;;;;;;;;;;;;;2.00;100.00;100691.47;4920065;29;20399;-76
2023/04/25 04:37:18;;;;;;;;;;;;;;;1.92;100.00;100692.72;4921144;29;19918;-75
2023/04/25 04:39:44;;;;;;;;;;;;;;;1.86;100.00;100695.66;4923248;29;20017;-76
2023/04/25 04:42:32;;;;;;;;;;;;;;;1.79;100.00;100697.75;4908350;29;20277;-76
2023/04/25 04:45:22;;;;;;;;;;;;;;;1.69;100.00;100700.00;4891419;29;20392;-75
2023/04/25 04:48:21;;;;;;;;;;;;;;;1.63;100.00;100695.09;4920408;29;19930;-76
2023/04/25 04:51:13;;;;;;;;;;;;;;;1.66;100.00;100697.53;4910248;29;19918;-75
2023/04/25 04:53:41;;;;;;;;;;;;;;;1.70;100.00;100709.50;4905532;29;20327;-76
2023/04/25 04:56:20;;;;;;;;;;;;;;;1.67;100.00;100703.59;4930714;29;20437;-76
2023/04/25 04:58:52;;;;;;;;;;;;;;;1.66;100.00;100705.34;4931118;29;20121;-76
2023/04/25 05:01:40;;;;;;;;;;;;;;;1.67;100.00;100704.44;4943247;29;20388;-75
2023/04/25 05:04:26;;;;;;;;;;;;;;;1.69;100.00;100701.78;4913746;29;19923;-76
2023/04/25 05:06:55;;;;;;;;;;;;;;;1.69;100.00;100707.81;4896134;29;19923;-75
2023/04/25 05:09:46;;;;;;;;;;;;;;;1.69;100.00;100702.59;4887077;29;19927;-76
2023/04/25 05:12:28;;;;;;;;;;;;;;;1.73;100.00;100706.75;4913743;29;19919;-75
2023/04/25 05:15:29;;;;;;;;;;;;;;;1.73;100.00;100708.50;4902603;29;19926;-75
2023/04/25 05:18:13;;;;;;;;;;;;;;;1.55;100.00;100702.47;4912707;29;20283;-75
2023/04/25 05:21:04;;;;;;;;;;;;;;;1.34;100.00;100708.69;4913655;29;19923;-75
2023/04/25 05:24:06;;;;;;;;;;;;;;;1.31;100.00;100706.25;4894392;29;19923;-76
2023/04/25 05:27:09;;;;;;;;;;;;;;;1.37;100.00;100705.09;4911354;29;19923;-75
2023/04/25 05:30:06;;;;;;;;;;;;;;;1.43;100.00;100704.81;4920091;29;19970;-75
2023/04/25 05:32:36;;;;;;;;;;;;;;;1.49;100.00;100706.25;4894554;29;20043;-75
2023/04/25 05:35:02;;;;;;;;;;;;;;;1.54;100.00;100706.84;4920351;29;19934;-76
2023/04/25 05:37:34;;;;;;;;;;;;;;;1.57;100.00;100700.63;4881174;29;19919;-75
2023/04/25 05:40:11;;;;;;;;;;;;;;;1.72;100.00;100704.22;4908076;29;19930;-75
2023/04/25 05:42:55;;;;;;;;;;;;;;;1.89;100.00;100694.66;4905731;29;19923;-75
2023/04/25 05:45:41;;;;;;;;;;;;;;;1.86;100.00;100706.91;4894474;29;19923;-75
2023/04/25 05:48:27;;;;;;;;;;;;;;;1.76;100.00;100704.88;4906486;29;19923;-75
2023/04/25 05:50:58;;;;;;;;;;;;;;;1.75;100.00;100708.41;4913089;29;19919;-76
2023/04/25 05:53:42;;;;;;;;;;;;;;;1.84;100.00;100705.31;4912369;29;19919;-75
2023/04/25 05:56:08;;;;;;;;;;;;;;;1.95;100.00;100704.75;4898198;29;19971;-76
2023/04/25 05:58:34;;;;;;;;;;;;;;;2.03;100.00;100697.38;4939824;29;20616;-75
2023/04/25 06:01:01;;;;;;;;;;;;;;;2.16;100.00;100704.53;4906803;29;19924;-76
2023/04/25 06:03:27;;;;;;;;;;;;;;;2.31;100.00;100702.84;4920438;29;19930;-76
2023/04/25 06:05:53;;;;;;;;;;;;;;;2.43;100.00;100704.78;4925203;29;20431;-76
2023/04/25 06:08:19;;;;;;;;;;;;;;;2.57;100.00;100701.41;4913721;29;19919;-75
2023/04/25 06:10:45;;;;;;;;;;;;;;;2.71;100.00;100698.00;4941259;28;20311;-75
2023/04/25 06:13:10;;;;;;;;;;;;;;;2.83;100.00;100695.63;4938971;28;20009;-75
2023/04/25 06:15:37;;;;;;;;;;;;;;;2.83;100.00;100695.63;4923234;29;20033;-76
2023/04/25 06:18:03;;;;;;;;;;;;;;;2.73;100.00;100696.16;4922922;29;19929;-76
2023/04/25 06:20:29;;;;;;;;;;;;;;;2.72;100.00;100701.47;4935887;29;19918;-76
2023/04/25 06:22:57;;;;;;;;;;;;;;;2.72;100.00;100701.47;4946793;28;19923;-75
2023/04/25 06:25:52;;;;;;;;;;;;;;;2.80;100.00;100696.63;4913906;29;19927;-76
2023/04/25 06:28:18;;;;;;;;;;;;;;;2.93;100.00;100699.38;4937326;29;19974;-76
2023/04/25 06:30:44;;;;;;;;;;;;;;;3.02;100.00;100697.19;4932763;29;20081;-76
2023/04/25 06:33:13;;;;;;;;;;;;;;;3.03;100.00;100694.47;4909611;29;19990;-76
2023/04/25 06:35:40;;;;;;;;;;;;;;;3.01;100.00;100698.13;4950739;28;19926;-76
2023/04/25 06:38:09;;;;;;;;;;;;;;;2.99;100.00;100693.00;4938665;28;19919;-76
2023/04/25 06:40:36;;;;;;;;;;;;;;;3.04;100.00;100690.94;4916527;29;19953;-75
2023/04/25 06:43:02;;;;;;;;;;;;;;;3.15;100.00;100687.72;4924296;29;19927;-75
2023/04/25 06:45:46;;;;;;;;;;;;;;;3.36;100.00;100682.13;4923094;29;20527;-75
2023/04/25 06:48:12;;;;;;;;;;;;;;;3.57;100.00;100687.84;4930429;29;20010;-76
2023/04/25 06:50:38;;;;;;;;;;;;;;;3.75;100.00;100685.06;4918915;29;20410;-76
2023/04/25 06:53:04;;;;;;;;;;;;;;;3.91;100.00;100678.88;4929274;29;19920;-76
2023/04/25 06:55:30;;;;;;;;;;;;;;;4.20;100.00;100687.50;4924725;29;20769;-76
2023/04/25 06:58:08;;;;;;;;;;;;;;;4.41;100.00;100681.03;4932795;29;19927;-76
2023/04/25 07:00:59;;;;;;;;;;;;;;;4.48;100.00;100679.69;4923588;29;19919;-76
2023/04/25 07:03:27;;;;;;;;;;;;;;;4.67;100.00;100681.97;4890372;29;19927;-76
2023/04/25 07:05:57;;;;;;;;;;;;;;;4.88;100.00;100675.41;4916230;29;20045;-76
2023/04/25 07:08:24;;;;;;;;;;;;;;;5.06;100.00;100673.38;4927153;29;19930;-76
2023/04/25 07:10:50;;;;;;;;;;;;;;;5.29;100.00;100679.66;4923755;29;19975;-76
2023/04/25 07:13:15;;;;;;;;;;;;;;;5.54;100.00;100675.34;4930825;29;19967;-76
2023/04/25 07:15:42;;;;;;;;;;;;;;;5.72;100.00;100669.78;4928999;29;19919;-76
2023/04/25 07:18:08;;;;;;;;;;;;;;;5.64;100.00;100669.50;4918502;29;19927;-76
2023/04/25 07:20:34;;;;;;;;;;;;;;;5.75;100.00;100674.81;4901299;29;19919;-76
2023/04/25 07:23:01;;;;;;;;;;;;;;;6.00;100.00;100672.25;4921923;29;19941;-76
2023/04/25 07:25:26;;;;;;;;;;;;;;;6.07;100.00;100674.38;4908197;29;20371;-76
2023/04/25 07:27:53;;;;;;;;;;;;;;;6.08;100.00;100675.22;4926900;29;19922;-76
2023/04/25 07:30:20;;;;;;;;;;;;;;;6.12;100.00;100670.56;4914472;29;19922;-77
2023/04/25 07:32:46;;;;;;;;;;;;;;;6.24;100.00;100666.25;4909969;29;19923;-76
2023/04/25 07:35:12;;;;;;;;;;;;;;;6.14;100.00;100659.03;4904623;29;19958;-77
2023/04/25 07:37:37;;;;;;;;;;;;;;;6.08;100.00;100664.72;4907909;29;20013;-76
2023/04/25 07:40:10;;;;;;;;;;;;;;;6.20;100.00;100668.25;4922911;29;20476;-77
2023/04/25 07:42:40;;;;;;;;;;;;;;;6.30;100.00;100665.81;4923057;29;19945;-76
2023/04/25 07:45:07;;;;;;;;;;;;;;;6.38;100.00;100671.34;4924932;29;19919;-77
2023/04/25 07:47:33;;;;;;;;;;;;;;;6.25;100.00;100674.00;4920848;29;19923;-77
2023/04/25 07:49:59;;;;;;;;;;;;;;;6.17;100.00;100671.09;4925113;29;19934;-77
2023/04/25 07:52:25;;;;;;;;;;;;;;;6.22;100.00;100676.84;4929230;29;19981;-77
2023/04/25 07:55:00;;;;;;;;;;;;;;;6.14;100.00;100682.66;4928195;29;19926;-77
2023/04/25 07:57:38;;;;;;;;;;;;;;;6.07;100.00;100684.03;4927830;29;20376;-77
2023/04/25 08:00:05;;;;;;;;;;;;;;;5.94;100.00;100687.47;4920865;29;20402;-77
2023/04/25 08:02:39;;;;;;;;;;;;;;;6.09;100.00;100679.50;4927136;29;19919;-76
2023/04/25 08:05:11;;;;;;;;;;;;;;;5.98;100.00;100679.41;4921293;29;20455;-77
2023/04/25 08:07:39;;;;;;;;;;;;;;;6.01;100.00;100676.56;4919461;29;19923;-76
2023/04/25 08:10:06;;;;;;;;;;;;;;;5.99;100.00;100670.59;4929587;29;19923;-77
2023/04/25 08:12:33;;;;;;;;;;;;;;;5.95;100.00;100678.69;4906490;29;19974;-76
2023/04/25 08:14:59;;;;;;;;;;;;;;;6.03;100.00;100677.28;4927065;29;19919;-76
2023/04/25 08:17:29;;;;;;;;;;;;;;;6.08;100.00;100675.22;4940870;29;19929;-76
2023/04/25 08:19:56;;;;;;;;;;;;;;;6.20;100.00;100681.38;4913220;29;19922;-76
2023/04/25 08:22:30;;;;;;;;;;;;;;;6.23;100.00;100683.78;4930883;29;19919;-76
2023/04/25 08:25:14;;;;;;;;;;;;;;;6.29;100.00;100693.84;4922440;29;19923;-76
2023/04/25 08:27:40;;;;;;;;;;;;;;;6.28;100.00;100692.16;4917743;29;19950;-76
2023/04/25 08:30:08;;;;;;;;;;;;;;;6.27;100.00;100685.25;4906251;29;19923;-76
2023/04/25 08:32:34;;;;;;;;;;;;;;;6.29;100.00;100685.94;4935631;29;19944;-77
2023/04/25 08:35:38;;;;;;;;;;;;;;;6.29;100.00;100688.56;4896945;29;19962;-76
2023/04/25 08:38:04;;;;;;;;;;;;;;;6.32;100.00;100693.59;4904651;29;19951;-76
2023/04/25 08:40:32;;;;;;;;;;;;;;;6.37;100.00;100692.47;4904107;29;20591;-76
2023/04/25 08:43:11;;;;;;;;;;;;;;;6.58;100.00;100701.41;4927716;29;20022;-76
2023/04/25 08:45:41;;;;;;;;;;;;;;;6.74;100.00;100692.38;4907249;29;19951;-76
2023/04/25 08:48:12;;;;;;;;;;;;;;;6.91;100.00;100706.09;4911429;29;20443;-76
2023/04/25 08:50:47;;;;;;;;;;;;;;;6.86;100.00;100701.16;4922470;29;19919;-76
2023/04/25 08:53:18;;;;;;;;;;;;;;;7.07;100.00;100701.34;4924807;29;19919;-76
2023/04/25 08:55:45;;;;;;;;;;;;;;;7.17;100.00;100701.50;4925051;29;20563;-76
2023/04/25 08:58:12;;;;;;;;;;;;;;;7.16;100.00;100705.09;4915765;29;19931;-76
2023/04/25 09:00:38;;;;;;;;;;;;;;;7.25;100.00;100700.06;4919528;29;19918;-77
2023/04/25 09:03:03;;;;;;;;;;;;;;;7.24;100.00;100701.03;4893415;29;19927;-75
2023/04/25 09:05:40;;;;;;;;;;;;;;;7.40;100.00;100698.91;5182442;27;19993;-78
2023/04/25 09:08:07;;;;;;;;;;;;;;;7.52;100.00;100707.66;5148019;27;19919;-78
2023/04/25 09:10:33;;;;;;;;;;;;;;;7.51;100.00;100700.72;5145412;27;20361;-77
2023/04/25 09:13:12;;;;;;;;;;;;;;;7.62;100.00;100701.69;5124612;27;19921;-78
2023/04/25 09:15:58;;;;;;;;;;;;;;;7.68;100.00;100698.56;5144214;27;19926;-77
2023/04/25 09:18:53;;;;;;;;;;;;;;;7.89;100.00;100692.59;5104796;27;20014;-78
2023/04/25 09:21:22;;;;;;;;;;;;;;;8.09;100.00;100696.28;5144567;27;19918;-77
2023/04/25 09:23:49;;;;;;;;;;;;;;;8.20;100.00;100700.72;5154806;27;19915;-77
2023/04/25 09:26:16;;;;;;;;;;;;;;;8.30;100.00;100703.41;5126364;27;19920;-76
2023/04/25 09:28:43;;;;;;;;;;;;;;;8.27;100.00;100699.25;5135868;27;19998;-76
2023/04/25 09:31:10;;;;;;;;;;;;;;;8.24;100.00;100701.28;5131631;27;19915;-75
2023/04/25 09:33:40;;;;;;;;;;;;;;;8.10;100.00;100707.66;5142567;27;21619;-78
2023/04/25 09:36:08;;;;;;;;;;;;;;;8.11;100.00;100711.94;5129186;27;20268;-78
2023/04/25 09:38:44;;;;;;;;;;;;;;;8.30;100.00;100706.91;5125344;27;19992;-78
2023/04/25 09:41:22;;;;;;;;;;;;;;;8.44;100.00;100707.59;5119383;27;20365;-78
2023/04/25 09:43:49;;;;;;;;;;;;;;;8.21;100.00;100710.28;5130501;27;19915;-78
2023/04/25 09:46:15;;;;;;;;;;;;;;;8.22;100.00;100703.22;5142629;27;19915;-75
2023/04/25 09:48:50;;;;;;;;;;;;;;;8.21;100.00;100701.53;5135159;27;19924;-75
2023/04/25 09:51:18;;;;;;;;;;;;;;;8.21;100.00;100707.66;5133952;27;19997;-77
2023/04/25 09:53:46;;;;;;;;;;;;;;;8.16;100.00;100699.25;5139767;27;20507;-77
2023/04/25 09:56:47;;;;;;;;;;;;;;;8.20;100.00;100700.72;5149416;27;19919;-77
2023/04/25 09:59:13;;;;;;;;;;;;;;;8.37;100.00;100695.88;5140263;27;19919;-77
2023/04/25 10:01:41;;;;;;;;;;;;;;;8.35;100.00;100698.63;5136487;27;19915;-77
2023/04/25 10:04:25;;;;;;;;;;;;;;;8.24;100.00;100701.28;5140359;27;20010;-77
2023/04/25 10:07:08;;;;;;;;;;;;;;;8.60;100.00;100687.94;5145621;27;19927;-77
2023/04/25 10:09:36;;;;;;;;;;;;;;;8.96;100.00;100695.56;5128287;27;19919;-77
2023/04/25 10:12:03;;;;;;;;;;;;;;;8.92;100.00;100692.34;5128635;27;19924;-77
2023/04/25 10:14:32;;;;;;;;;;;;;;;8.81;100.00;100693.22;5139621;27;20006;-77
2023/04/25 10:16:58;;;;;;;;;;;;;;;8.75;100.00;100693.75;5118870;27;19968;-77
2023/04/25 10:19:24;;;;;;;;;;;;;;;8.78;100.00;100690.84;5151162;27;19923;-77
2023/04/25 10:21:58;;;;;;;;;;;;;;;8.91;100.00;100698.59;5124137;27;19986;-78
2023/04/25 10:24:24;;;;;;;;;;;;;;;8.93;100.00;100686.94;5133993;27;20321;-78
2023/04/25 10:26:50;;;;;;;;;;;;;;;9.14;100.00;100694.03;5142934;27;19915;-77
2023/04/25 10:29:23;;;;;;;;;;;;;;;8.92;100.00;100687.06;5140628;27;20744;-77
2023/04/25 10:31:49;;;;;;;;;;;;;;;8.79;100.00;100682.00;5095378;27;19926;-77
2023/04/25 10:34:16;;;;;;;;;;;;;;;8.88;100.00;100677.75;5112771;27;19923;-77
2023/04/25 10:36:42;;;;;;;;;;;;;;;8.97;100.00;100679.63;5098789;27;20576;-76
2023/04/25 10:39:09;;;;;;;;;;;;;;;9.15;100.00;100679.91;5072865;28;19918;-77
2023/04/25 10:41:48;;;;;;;;;;;;;;;9.17;100.00;100679.78;5089481;28;19927;-77
2023/04/25 10:44:15;;;;;;;;;;;;;;;9.04;100.00;100670.25;5087072;28;20294;-77
2023/04/25 10:46:40;;;;;;;;;;;;;;;9.33;100.00;100670.56;5078467;28;19924;-77
2023/04/25 10:49:07;;;;;;;;;;;;;;;9.61;100.00;100679.56;5103790;28;20410;-77
2023/04/25 10:51:34;;;;;;;;;;;;;;;9.52;100.00;100665.34;5096232;28;19920;-77
2023/04/25 10:54:06;;;;;;;;;;;;;;;9.47;100.00;100666.72;5103844;28;19920;-77
2023/04/25 10:56:35;;;;;;;;;;;;;;;9.14;97.39;100669.47;5099887;28;19923;-77
2023/04/25 10:59:09;;;;;;;;;;;;;;;9.04;100.00;100670.25;5064180;28;19926;-77
2023/04/25 11:01:51;;;;;;;6.40;1.05;;;;;;;9.19;100.00;100667.28;5171390;27;20533;-77
2023/04/25 11:04:24;;;;;;;3.40;1.20;;;;;;;9.63;100.00;100658.34;5134301;27;20037;-76
2023/04/25 11:07:06;;;;;;;2.15;0.80;;;;;;;10.03;100.00;100652.19;5157094;27;20110;-76
2023/04/25 11:09:38;;;;;;;3.13;1.00;;;;;;;10.39;100.00;100659.63;5117203;27;20387;-77
2023/04/25 11:12:04;;;;;;;4.00;0.80;;;;;;;10.34;100.00;100658.34;5136068;27;20104;-77
2023/04/25 11:14:30;;;;;;;3.25;0.85;;;;;;;10.01;100.00;100662.06;5153897;27;20117;-77
2023/04/25 11:16:58;;;;;;;6.43;0.95;;;;;;;9.87;100.00;100665.94;5133698;27;20104;-77
2023/04/25 11:19:25;;;;;;;4.07;1.08;;;;;;;10.07;100.00;100651.91;5110932;27;20894;-77
2023/04/25 11:21:54;;;;;;;0.98;0.68;;;;;;;10.38;100.00;100655.28;5140438;27;20027;-76
2023/04/25 11:24:26;;;;;;;9.63;1.00;;;;;;;10.20;91.55;100651.66;5134827;27;20042;-76
2023/04/25 11:26:52;;;;;;;2.83;0.80;;;;;;;9.99;97.73;100648.16;5146667;27;20033;-77
2023/04/25 11:29:18;;;;;;;3.42;0.90;;;;;;;9.77;96.39;100650.06;5157689;27;20031;-77
2023/04/25 11:31:45;;;;;;;2.67;1.10;;;;;;;9.83;99.06;100647.81;5143405;27;20083;-77
2023/04/25 11:34:11;;;;;;;2.67;1.10;;;;;;;9.81;100.00;100647.97;5147742;27;20037;-76
2023/04/25 11:36:38;;;;;;;3.38;1.00;;;;;;;9.82;100.00;100647.00;5157942;27;20055;-77
2023/04/25 11:39:05;;;;;;;4.75;1.10;;;;;;;9.72;100.00;100654.88;5150630;27;20026;-76
2023/04/25 11:41:31;;;;;;;3.00;1.17;;;;;;;9.77;100.00;100644.78;5121278;27;20517;-76
2023/04/25 11:43:57;;;;;;;10.20;1.55;;;;;;;9.93;100.00;100643.41;5128773;27;20027;-77
2023/04/25 11:46:23;;;;;;;4.00;1.10;;;;;;;10.04;100.00;100642.47;5137631;27;20424;-77
2023/04/25 11:48:50;;;;;;;4.22;1.10;;;;;;;10.13;100.00;100632.91;5113724;27;20043;-77
2023/04/25 11:51:16;;;;;;;4.78;0.93;;;;;;;10.18;100.00;100628.88;5137776;27;20091;-77
2023/04/25 11:53:44;;;;;;;7.32;1.13;;;;;;;10.29;100.00;100637.63;5161260;27;20058;-77
2023/04/25 11:56:13;;;;;;;2.80;1.10;;;;;;;10.34;100.00;100627.50;5122211;27;20022;-77
2023/04/25 11:59:00;;;;;;;5.68;1.20;;;;;;;10.40;97.94;100629.59;5153731;27;20023;-76
2023/04/25 12:01:32;;;;;;;5.75;1.10;;;;;;;10.35;100.00;100629.16;5132034;27;20545;-77
2023/04/25 12:04:09;;;;;;;2.47;1.13;;;;;;;10.25;99.93;100633.59;5141839;27;20333;-77
2023/04/25 12:06:40;;;;;;;6.07;0.90;;;;;;;10.17;94.02;100623.72;5140284;27;20042;-77
2023/04/25 12:09:09;;;;;;;4.60;1.27;;;;;;;10.27;94.64;100626.38;5146167;27;20037;-77
2023/04/25 12:11:45;;;;;;;3.85;1.08;;;;;;;10.55;90.20;100618.63;5124115;27;20032;-77
2023/04/25 12:14:32;;;;;;;5.88;1.10;;;;;;;10.97;92.90;100620.13;5113941;27;20023;-77
2023/04/25 12:17:00;;;;;;;3.50;1.05;;;;;;;11.17;91.49;100614.75;5122071;27;20106;-77
2023/04/25 12:19:26;;;;;;;5.13;1.13;;;;;;;11.27;90.24;100617.38;5118197;27;20092;-77
2023/04/25 12:21:53;;;;;;;1.90;0.82;;;;;;;11.15;86.68;100617.56;5120272;27;20549;-77
2023/04/25 12:24:25;;;;;;;4.80;1.15;;;;;;;11.06;85.26;100614.94;5117989;27;20030;-77
2023/04/25 12:26:59;;;;;;;8.80;0.82;;;;;;;10.94;85.65;100612.44;5083478;27;20038;-77
2023/04/25 12:29:27;;;;;;;4.95;0.90;;;;;;;10.88;86.47;100616.50;5123460;27;20023;-77
2023/04/25 12:31:54;;;;;;;3.13;1.10;;;;;;;10.84;87.98;100609.84;5110477;27;20027;-77
2023/04/25 12:34:21;;;;;;;6.57;1.30;;;;;;;10.79;88.62;100612.91;5115442;27;20034;-77
2023/04/25 12:36:47;;;;;;;2.20;0.80;;;;;;;10.40;87.99;100613.72;5118533;27;20035;-77
2023/04/25 12:39:25;;;;;;;6.40;0.82;;;;;;;10.10;83.69;100609.38;5105361;27;20106;-77
2023/04/25 12:41:53;;;;;;;4.18;1.35;;;;;;;10.23;92.00;100609.13;5108976;27;20543;-77